createdAt,value
2023-01-30T00:02:16.434Z,11.43
2023-01-30T00:06:18.603Z,12.25
2023-01-30T00:10:20.425Z,11.00
2023-01-30T00:14:22.810Z,11.97
2023-01-30T00:18:24.510Z,10.82
2023-01-30T00:22:26.150Z,10.55
2023-01-30T00:26:27.895Z,10.25
2023-01-30T00:30:30.144Z,13.35
2023-01-30T00:34:32.851Z,11.98
2023-01-30T00:38:34.621Z,14.05
2023-01-30T00:42:54.695Z,13.10
2023-01-30T00:47:05.386Z,11.02
2023-01-30T00:51:07.260Z,10.00
2023-01-30T00:55:09.205Z,11.33
2023-01-30T00:59:10.740Z,9.83
2023-01-30T01:03:12.959Z,10.15
2023-01-30T01:07:15.277Z,10.20
2023-01-30T01:11:24.639Z,10.20
2023-01-30T01:15:27.248Z,11.23
2023-01-30T01:19:28.949Z,10.70
2023-01-30T01:23:30.522Z,9.60
2023-01-30T01:27:32.360Z,13.18
2023-01-30T01:31:34.050Z,11.98
2023-01-30T01:35:40.920Z,13.40
2023-01-30T01:40:00.907Z,13.68
2023-01-30T01:44:11.258Z,12.70
2023-01-30T01:48:26.321Z,11.75
2023-01-30T01:52:28.975Z,10.95
2023-01-30T01:56:34.580Z,11.75
2023-01-30T02:00:36.342Z,11.02
2023-01-30T02:05:01.619Z,10.20
2023-01-30T02:09:08.565Z,9.90
2023-01-30T02:13:10.120Z,9.88
2023-01-30T02:17:11.779Z,10.50
2023-01-30T02:21:34.750Z,10.20
2023-01-30T02:26:12.837Z,11.77
2023-01-30T02:30:36.386Z,10.52
2023-01-30T02:35:05.569Z,9.73
2023-01-30T02:39:25.072Z,11.40
2023-01-30T02:43:37.833Z,9.82
2023-01-30T02:47:56.839Z,10.25
2023-01-30T02:52:00.878Z,10.70
2023-01-30T02:56:03.780Z,10.75
2023-01-30T03:00:07.786Z,11.02
2023-01-30T03:04:26.734Z,10.27
2023-01-30T03:08:41.430Z,8.82
2023-01-30T03:12:55.291Z,9.73
2023-01-30T03:17:01.236Z,10.07
2023-01-30T03:21:07.549Z,12.15
2023-01-30T03:25:10.039Z,11.10
2023-01-30T03:29:11.691Z,12.18
2023-01-30T03:33:14.263Z,8.90
2023-01-30T03:37:21.632Z,10.07
2023-01-30T03:41:23.396Z,9.17
2023-01-30T03:45:25.046Z,9.65
2023-01-30T03:49:27.618Z,9.80
2023-01-30T03:53:29.976Z,11.65
2023-01-30T03:57:31.572Z,10.00
2023-01-30T04:05:36.984Z,9.02
2023-01-30T04:09:41.878Z,10.05
2023-01-30T04:13:45.550Z,11.23
2023-01-30T04:17:47.988Z,9.93
2023-01-30T04:22:08.192Z,10.10
2023-01-30T04:26:11.292Z,10.02
2023-01-30T04:30:15.613Z,10.30
2023-01-30T04:34:17.809Z,11.75
2023-01-30T04:38:20.259Z,11.23
2023-01-30T04:42:22.168Z,10.32
2023-01-30T04:46:43.767Z,10.77
2023-01-30T04:50:49.709Z,10.65
2023-01-30T04:54:51.308Z,11.23
2023-01-30T04:58:53.070Z,10.98
2023-01-30T05:02:58.241Z,11.27
2023-01-30T05:06:59.834Z,11.60
2023-01-30T05:11:01.499Z,11.45
2023-01-30T05:15:03.185Z,11.43
2023-01-30T05:19:04.912Z,11.93
2023-01-30T05:23:06.467Z,10.75
2023-01-30T05:27:08.029Z,11.50
2023-01-30T05:31:14.116Z,11.15
2023-01-30T05:35:16.220Z,11.18
2023-01-30T05:39:18.151Z,11.88
2023-01-30T05:43:19.722Z,12.98
2023-01-30T05:47:21.286Z,11.35
2023-01-30T05:51:25.480Z,11.95
2023-01-30T05:55:27.025Z,10.32
2023-01-30T05:59:28.661Z,10.70
2023-01-30T06:03:30.345Z,10.55
2023-01-30T06:07:32.305Z,10.60
2023-01-30T06:11:33.948Z,12.17
2023-01-30T06:15:36.942Z,10.75
2023-01-30T06:19:38.497Z,10.93
2023-01-30T06:23:40.090Z,9.90
2023-01-30T06:27:43.351Z,10.00
2023-01-30T06:31:45.069Z,10.88
2023-01-30T06:35:49.765Z,9.77
2023-01-30T06:39:51.343Z,10.80
2023-01-30T06:43:52.985Z,11.23
2023-01-30T06:47:55.899Z,9.20
2023-01-30T06:51:57.673Z,9.63
2023-01-30T06:56:01.177Z,9.00
2023-01-30T07:00:11.204Z,9.63
2023-01-30T07:04:12.835Z,10.25
2023-01-30T07:08:15.854Z,8.65
2023-01-30T07:12:17.482Z,10.45
2023-01-30T07:16:19.121Z,10.40
2023-01-30T07:20:20.721Z,8.90
2023-01-30T07:24:43.373Z,9.50
2023-01-30T07:28:46.196Z,8.85
2023-01-30T07:32:54.698Z,11.45
2023-01-30T07:36:56.298Z,10.02
2023-01-30T07:40:58.831Z,10.57
2023-01-30T07:45:00.368Z,9.40
2023-01-30T07:49:02.517Z,9.20
2023-01-30T07:53:05.859Z,9.48
2023-01-30T07:57:07.434Z,9.27
2023-01-30T08:01:09.138Z,8.55
2023-01-30T08:05:10.709Z,9.60
2023-01-30T08:09:13.261Z,9.20
2023-01-30T08:17:16.649Z,7.55
2023-01-30T08:21:18.824Z,7.40
2023-01-30T08:25:22.997Z,7.88
2023-01-30T08:29:24.538Z,7.75
2023-01-30T08:33:26.161Z,7.82
2023-01-30T08:37:27.731Z,8.23
2023-01-30T08:41:29.349Z,8.00
2023-01-30T08:45:31.682Z,9.25
2023-01-30T08:49:33.292Z,9.85
2023-01-30T08:53:36.461Z,8.38
2023-01-30T08:57:52.320Z,8.23
2023-01-30T09:02:06.694Z,8.27
2023-01-30T09:06:40.854Z,7.78
2023-01-30T09:11:39.780Z,8.73
2023-01-30T09:21:04.818Z,8.52
2023-01-30T09:25:07.170Z,7.78
2023-01-30T09:29:09.092Z,7.97
2023-01-30T09:33:10.705Z,7.95
2023-01-30T09:37:12.248Z,7.78
2023-01-30T09:41:57.009Z,7.65
2023-01-30T09:46:12.712Z,7.07
2023-01-30T09:50:47.755Z,7.03
2023-01-30T09:55:00.861Z,6.93
2023-01-30T09:59:04.734Z,6.93
2023-01-30T10:03:15.201Z,7.55
2023-01-30T10:07:21.269Z,7.93
2023-01-30T10:11:47.960Z,7.00
2023-01-30T10:16:03.927Z,6.32
2023-01-30T10:20:37.381Z,6.28
2023-01-30T10:24:52.106Z,6.85
2023-01-30T10:29:08.548Z,9.05
2023-01-30T10:33:25.277Z,10.35
2023-01-30T10:37:32.610Z,7.93
2023-01-30T10:41:45.609Z,5.60
2023-01-30T10:50:17.938Z,6.13
2023-01-30T10:54:27.120Z,8.27
2023-01-30T10:58:53.395Z,4.85
2023-01-30T11:03:11.848Z,3.78
2023-01-30T11:07:13.916Z,3.10
2023-01-30T11:11:25.313Z,2.92
2023-01-30T11:15:44.942Z,3.47
2023-01-30T11:19:55.671Z,3.45
2023-01-30T11:24:03.348Z,3.28
2023-01-30T11:28:06.412Z,3.40
2023-01-30T11:32:27.154Z,3.30
2023-01-30T11:36:33.459Z,3.25
2023-01-30T11:40:38.952Z,3.38
2023-01-30T11:44:42.447Z,3.80
2023-01-30T11:49:02.876Z,4.07
2023-01-30T11:53:34.347Z,3.88
2023-01-30T11:57:42.035Z,3.05
2023-01-30T12:01:44.893Z,3.35
2023-01-30T12:09:50.591Z,2.20
2023-01-30T12:13:55.276Z,2.58
2023-01-30T12:18:25.543Z,2.80
2023-01-30T12:22:59.548Z,2.80
2023-01-30T12:27:39.362Z,2.70
2023-01-30T12:31:47.901Z,2.55
2023-01-30T12:36:27.631Z,2.58
2023-01-30T12:40:47.336Z,2.55
2023-01-30T12:45:13.438Z,2.95
2023-01-30T12:49:33.914Z,2.55
2023-01-30T12:53:35.621Z,2.50
2023-01-30T12:57:46.880Z,2.20
2023-01-30T13:02:07.343Z,2.40
2023-01-30T13:06:26.322Z,2.10
2023-01-30T13:10:37.931Z,2.08
2023-01-30T13:14:48.668Z,1.77
2023-01-30T13:19:23.064Z,1.85
2023-01-30T13:23:57.458Z,1.63
2023-01-30T13:28:04.525Z,1.65
2023-01-30T13:32:14.970Z,1.52
2023-01-30T13:36:39.914Z,2.10
2023-01-30T13:40:44.224Z,2.05
2023-01-30T13:44:46.649Z,1.98
2023-01-30T13:49:07.046Z,2.88
2023-01-30T13:53:22.696Z,2.15
2023-01-30T13:57:40.952Z,2.20
2023-01-30T14:02:03.789Z,2.53
2023-01-30T14:06:10.803Z,2.75
2023-01-30T14:10:20.689Z,3.00
2023-01-30T14:14:31.822Z,3.40
2023-01-30T14:18:36.283Z,3.38
2023-01-30T14:22:55.755Z,3.65
2023-01-30T14:27:01.726Z,3.50
2023-01-30T14:31:03.735Z,4.20
2023-01-30T14:35:05.600Z,4.07
2023-01-30T14:39:40.610Z,4.82
2023-01-30T14:43:42.395Z,5.22
2023-01-30T14:47:46.534Z,5.20
2023-01-30T14:51:50.495Z,4.32
2023-01-30T14:56:01.423Z,4.30
2023-01-30T15:00:18.187Z,4.45
2023-01-30T15:04:21.189Z,4.70
2023-01-30T15:08:26.595Z,3.80
2023-01-30T15:12:30.850Z,4.75
2023-01-30T15:16:38.304Z,4.30
2023-01-30T15:21:00.206Z,5.53
2023-01-30T15:25:27.558Z,5.20
2023-01-30T15:30:00.626Z,5.50
2023-01-30T15:34:02.183Z,5.72
2023-01-30T15:38:03.768Z,7.72
2023-01-30T15:42:08.114Z,12.13
2023-01-30T15:46:21.949Z,12.82
2023-01-30T15:50:23.642Z,12.52
2023-01-30T15:54:25.329Z,12.00
2023-01-30T15:58:28.260Z,15.10
2023-01-30T16:06:35.830Z,13.35
2023-01-30T16:10:44.459Z,9.23
2023-01-30T16:14:46.069Z,7.50
2023-01-30T16:18:50.837Z,6.63
2023-01-30T16:22:53.346Z,5.22
2023-01-30T16:27:01.750Z,5.10
2023-01-30T16:31:06.970Z,5.70
2023-01-30T16:35:27.844Z,5.35
2023-01-30T16:39:36.064Z,5.32
2023-01-30T16:43:44.354Z,5.25
2023-01-30T16:47:45.944Z,5.15
2023-01-30T16:51:49.288Z,5.70
2023-01-30T16:55:58.922Z,4.65
2023-01-30T17:00:14.592Z,5.45
2023-01-30T17:04:21.367Z,4.95
2023-01-30T17:08:49.641Z,4.43
2023-01-30T17:12:53.167Z,5.07
2023-01-30T17:17:09.945Z,8.18
2023-01-30T17:21:13.660Z,9.07
2023-01-30T17:25:31.660Z,9.77
2023-01-30T17:29:42.479Z,5.10
2023-01-30T17:33:44.692Z,4.55
2023-01-30T17:37:59.633Z,4.43
2023-01-30T17:42:09.388Z,4.57
2023-01-30T17:46:12.889Z,4.93
2023-01-30T17:50:14.714Z,5.18
2023-01-30T17:54:17.088Z,5.28
2023-01-30T17:58:19.286Z,4.95
2023-01-30T18:02:20.886Z,5.55
2023-01-30T18:06:22.424Z,4.78
2023-01-30T18:10:24.378Z,4.97
2023-01-30T18:14:25.942Z,5.13
2023-01-30T18:18:27.572Z,5.63
2023-01-30T18:22:29.118Z,6.57
2023-01-30T18:26:30.794Z,9.68
2023-01-30T18:30:32.422Z,8.57
2023-01-30T18:34:34.041Z,6.72
2023-01-30T18:38:36.423Z,7.70
2023-01-30T18:42:37.969Z,6.40
2023-01-30T18:46:39.576Z,5.70
2023-01-30T18:50:41.215Z,6.55
2023-01-30T18:54:43.301Z,6.50
2023-01-30T18:58:45.033Z,6.67
2023-01-30T19:02:53.685Z,8.18
2023-01-30T19:06:55.343Z,8.75
2023-01-30T19:11:24.588Z,7.38
2023-01-30T19:15:26.239Z,6.47
2023-01-30T19:19:28.260Z,6.18
2023-01-30T19:23:31.018Z,4.63
2023-01-30T19:27:36.353Z,4.30
2023-01-30T19:31:38.247Z,3.75
2023-01-30T19:35:42.395Z,4.50
2023-01-30T19:39:44.037Z,3.75
2023-01-30T19:43:45.961Z,4.82
2023-01-30T19:47:47.641Z,4.80
2023-01-30T19:51:49.312Z,5.05
2023-01-30T19:55:51.792Z,4.63
2023-01-30T19:59:53.413Z,4.78
2023-01-30T20:03:55.563Z,6.00
2023-01-30T20:07:57.148Z,5.37
2023-01-30T20:11:58.714Z,8.15
2023-01-30T20:16:06.131Z,10.27
2023-01-30T20:20:10.309Z,11.63
2023-01-30T20:24:13.697Z,11.48
2023-01-30T20:28:15.329Z,13.43
2023-01-30T20:32:16.858Z,13.35
2023-01-30T20:36:19.792Z,13.10
2023-01-30T20:44:24.467Z,9.50
2023-01-30T20:52:29.526Z,8.18
2023-01-30T20:56:43.165Z,9.32
2023-01-30T21:00:44.911Z,12.70
2023-01-30T21:04:46.496Z,12.43
2023-01-30T21:08:48.118Z,13.75
2023-01-30T21:12:49.736Z,13.90
2023-01-30T21:16:51.374Z,15.52
2023-01-30T21:20:52.948Z,14.40
2023-01-30T21:24:54.674Z,8.68
2023-01-30T21:28:56.374Z,10.73
2023-01-30T21:32:58.542Z,11.15
2023-01-30T21:37:18.995Z,16.47
2023-01-30T21:41:43.511Z,16.00
2023-01-30T21:45:45.409Z,15.73
2023-01-30T21:49:47.032Z,22.02
2023-01-30T21:53:49.386Z,18.30
2023-01-30T21:57:52.393Z,13.10
2023-01-30T22:01:53.956Z,10.98
2023-01-30T22:05:55.720Z,10.98
2023-01-30T22:09:57.566Z,14.10
2023-01-30T22:14:20.719Z,12.65
2023-01-30T22:22:24.728Z,6.22
2023-01-30T22:26:26.799Z,6.63
2023-01-30T22:30:28.444Z,6.10
2023-01-30T22:34:30.061Z,5.32
2023-01-30T22:38:31.857Z,6.00
2023-01-30T22:42:33.405Z,4.82
2023-01-30T22:46:37.581Z,5.70
2023-01-30T22:50:39.315Z,5.03
2023-01-30T22:54:40.971Z,5.25
2023-01-30T22:58:43.769Z,7.18
2023-01-30T23:06:48.332Z,10.82
2023-01-30T23:14:51.460Z,7.82
2023-01-30T23:18:56.658Z,7.18
2023-01-30T23:22:58.198Z,6.18
2023-01-30T23:27:03.192Z,7.35
2023-01-30T23:31:10.567Z,10.00
2023-01-30T23:35:12.176Z,10.20
2023-01-30T23:39:14.351Z,13.88
2023-01-30T23:43:16.544Z,13.07
2023-01-30T23:47:18.129Z,9.50
2023-01-30T23:51:21.273Z,12.23
2023-01-30T23:55:22.824Z,11.85
2023-01-30T23:59:24.456Z,11.57
